Time;durP1;ratioP1;P1;durP2;ratioP2;P2;SDS_P1;SDS_P2;PMS_P1;PMS_P2;Temp;Humidity;BMP_temperature;BMP_pressure;BME280_temperature;BME280_humidity;BME280_pressure;Samples;Min_cycle;Max_cycle;Signal;HPM_P1;HPM_P2
2024/03/30 00:01:28;;;;;;;4.88;4.38;;;;;;;11.41;100.00;98371.91;10414727;28;20119;-66
2024/03/30 00:06:28;;;;;;;5.53;5.03;;;;;;;11.40;100.00;98364.09;10401699;28;20490;-66
2024/03/30 00:11:30;;;;;;;5.22;4.72;;;;;;;11.48;100.00;98366.69;10404771;28;20052;-67
2024/03/30 00:16:30;;;;;;;5.10;4.60;;;;;;;11.53;100.00;98368.84;10409320;28;20143;-66
2024/03/30 00:21:30;;;;;;;4.82;4.32;;;;;;;11.54;100.00;98368.66;10374582;28;20052;-66
2024/03/30 00:26:31;;;;;;;5.05;4.65;;;;;;;11.52;100.00;98360.03;10400400;28;21059;-66
2024/03/30 00:31:32;;;;;;;4.72;4.32;;;;;;;11.49;100.00;98349.72;10394738;28;20049;-66
2024/03/30 00:36:32;;;;;;;5.65;5.15;;;;;;;11.46;100.00;98342.91;10421610;28;20049;-66
2024/03/30 00:41:33;;;;;;;5.28;4.78;;;;;;;11.48;100.00;98340.91;10383958;28;20056;-65
2024/03/30 00:46:33;;;;;;;6.07;4.88;;;;;;;11.43;100.00;98331.78;10383053;28;20147;-65
2024/03/30 00:51:34;;;;;;;5.85;5.35;;;;;;;11.42;100.00;98336.25;10403201;28;20060;-66
2024/03/30 00:56:34;;;;;;;5.72;5.22;;;;;;;11.43;100.00;98347.75;10406440;28;20052;-66
2024/03/30 01:01:34;;;;;;;5.80;5.22;;;;;;;11.39;100.00;98341.94;10400537;28;20048;-66
2024/03/30 01:06:35;;;;;;;5.60;5.00;;;;;;;11.37;100.00;98343.13;10374639;28;20127;-66
2024/03/30 01:11:36;;;;;;;6.30;5.22;;;;;;;11.34;100.00;98332.84;10395329;28;20143;-68
2024/03/30 01:16:37;;;;;;;6.95;6.35;;;;;;;11.35;100.00;98334.47;10379441;28;20194;-66
2024/03/30 01:21:38;;;;;;;7.75;5.45;;;;;;;11.29;100.00;98315.53;10405390;28;20129;-66
2024/03/30 01:26:55;;;;;;;6.13;5.63;;;;;;;11.28;100.00;98313.88;10399635;28;20849;-66
2024/03/30 01:31:55;;;;;;;6.00;5.28;;;;;;;11.25;100.00;98303.56;10401770;28;20127;-66
2024/03/30 01:36:56;;;;;;;5.40;4.90;;;;;;;11.28;100.00;98308.53;10411679;28;21042;-65
2024/03/30 01:41:56;;;;;;;5.25;4.82;;;;;;;11.26;100.00;98315.88;10410162;28;20153;-65
2024/03/30 01:46:56;;;;;;;5.80;5.30;;;;;;;11.24;100.00;98312.56;10408191;28;20076;-66
2024/03/30 01:51:59;;;;;;;5.45;4.93;;;;;;;11.26;100.00;98307.03;10407386;28;20077;-66
2024/03/30 01:57:00;;;;;;;4.82;4.43;;;;;;;11.23;100.00;98315.38;10410318;28;20778;-66
2024/03/30 02:02:01;;;;;;;5.45;4.95;;;;;;;11.22;100.00;98298.59;10410358;28;20158;-66
2024/03/30 02:07:02;;;;;;;4.95;4.25;;;;;;;11.23;100.00;98297.59;10409346;28;20103;-66
2024/03/30 02:12:02;;;;;;;4.30;3.92;;;;;;;11.24;100.00;98306.41;10409664;28;20637;-66
2024/03/30 02:17:03;;;;;;;4.22;3.75;;;;;;;11.22;100.00;98311.09;10412218;28;20080;-66
2024/03/30 02:22:03;;;;;;;4.13;3.72;;;;;;;11.18;100.00;98297.28;10409404;28;20064;-66
2024/03/30 02:27:04;;;;;;;3.28;2.90;;;;;;;11.21;100.00;98296.09;10406516;28;20059;-67
2024/03/30 02:32:06;;;;;;;4.53;3.35;;;;;;;11.15;100.00;98286.97;10408224;28;20064;-66
2024/03/30 02:37:07;;;;;;;3.75;3.38;;;;;;;11.19;100.00;98285.63;10414457;28;20140;-66
2024/03/30 02:42:07;;;;;;;4.53;3.15;;;;;;;11.21;100.00;98296.91;10395323;28;20154;-67
2024/03/30 02:47:08;;;;;;;3.80;2.90;;;;;;;11.20;100.00;98295.28;10409208;28;20056;-65
2024/03/30 02:52:08;;;;;;;4.05;3.13;;;;;;;11.21;100.00;98296.91;10408770;28;20044;-66
2024/03/30 02:57:08;;;;;;;3.80;3.20;;;;;;;11.23;100.00;98304.72;10411892;28;20128;-67
2024/03/30 03:02:09;;;;;;;3.90;3.50;;;;;;;11.21;100.00;98291.59;10403223;28;20045;-66
2024/03/30 03:07:09;;;;;;;4.00;3.60;;;;;;;11.14;100.00;98286.16;10401913;28;20895;-66
2024/03/30 03:12:10;;;;;;;3.50;3.13;;;;;;;11.18;100.00;98289.28;10412068;28;20044;-66
2024/03/30 03:17:10;;;;;;;5.78;3.63;;;;;;;11.20;100.00;98289.97;10402906;28;20057;-67
2024/03/30 03:22:11;;;;;;;4.95;4.25;;;;;;;11.04;100.00;98274.06;10399514;28;20051;-66
2024/03/30 03:27:11;;;;;;;4.03;3.53;;;;;;;11.16;100.00;98293.97;10408279;28;20152;-66
2024/03/30 03:32:12;;;;;;;5.95;3.67;;;;;;;11.16;100.00;98272.66;10403555;28;20042;-66
2024/03/30 03:37:12;;;;;;;4.82;4.18;;;;;;;11.17;100.00;98270.81;10408250;28;20156;-65
2024/03/30 03:42:13;;;;;;;5.47;4.07;;;;;;;11.17;100.00;98257.50;10402197;28;20115;-65
2024/03/30 03:47:13;;;;;;;5.28;4.00;;;;;;;11.14;100.00;98256.88;10390025;28;20060;-66
2024/03/30 03:52:13;;;;;;;4.95;4.00;;;;;;;11.15;100.00;98265.69;10407179;28;20051;-66
2024/03/30 03:57:14;;;;;;;4.60;3.83;;;;;;;11.15;100.00;98260.34;10402990;28;20138;-66
2024/03/30 04:02:15;;;;;;;4.57;4.05;;;;;;;11.14;100.00;98269.38;10388733;28;20060;-65
2024/03/30 04:07:15;;;;;;;4.38;3.83;;;;;;;11.12;100.00;98268.69;10409079;28;20555;-66
2024/03/30 04:12:16;;;;;;;5.70;4.13;;;;;;;10.91;100.00;98229.38;10390694;28;20048;-65
2024/03/30 04:17:16;;;;;;;9.02;4.50;;;;;;;11.11;100.00;98275.03;10402120;28;20036;-67
2024/03/30 04:22:16;;;;;;;5.55;4.07;;;;;;;11.10;100.00;98260.06;10409822;28;20049;-66
2024/03/30 04:27:17;;;;;;;7.70;4.03;;;;;;;11.08;100.00;98262.06;10404634;28;20060;-66
2024/03/30 04:32:17;;;;;;;8.18;4.47;;;;;;;11.07;100.00;98269.22;10388062;28;20045;-66
2024/03/30 04:37:18;;;;;;;7.65;4.20;;;;;;;11.07;100.00;98268.41;10405611;28;20049;-66
2024/03/30 04:42:18;;;;;;;7.18;4.32;;;;;;;11.07;100.00;98268.41;10404573;28;20060;-66
2024/03/30 04:47:19;;;;;;;8.70;4.53;;;;;;;11.10;100.00;98273.38;10395300;28;20715;-66
2024/03/30 04:52:19;;;;;;;7.63;4.32;;;;;;;11.07;100.00;98260.41;10400427;28;20049;-66
2024/03/30 04:57:19;;;;;;;8.45;5.35;;;;;;;11.09;100.00;98269.03;10394131;28;20049;-67
2024/03/30 05:02:20;;;;;;;7.40;4.95;;;;;;;11.06;100.00;98256.09;10406071;28;20110;-67
2024/03/30 05:07:20;;;;;;;7.10;4.65;;;;;;;11.08;100.00;98270.03;10406103;28;20127;-66
2024/03/30 05:12:21;;;;;;;6.35;4.32;;;;;;;11.10;100.00;98268.88;10412734;28;20440;-66
2024/03/30 05:17:21;;;;;;;6.22;4.40;;;;;;;11.11;100.00;98280.38;10415716;28;20152;-67
2024/03/30 05:22:21;;;;;;;6.63;4.78;;;;;;;11.06;100.00;98272.06;10411993;28;20060;-65
2024/03/30 05:27:22;;;;;;;6.68;4.38;;;;;;;11.08;100.00;98284.19;10413624;28;20045;-67
2024/03/30 05:32:22;;;;;;;5.55;3.80;;;;;;;11.13;100.00;98271.19;10410796;28;20071;-66
2024/03/30 05:37:22;;;;;;;6.20;4.18;;;;;;;11.17;100.00;98274.34;10403300;28;20141;-66
2024/03/30 05:42:23;;;;;;;7.80;4.40;;;;;;;11.23;100.00;98256.81;10395278;28;20037;-65
2024/03/30 05:47:23;;;;;;;5.03;3.85;;;;;;;11.26;100.00;98265.28;10406450;28;20126;-66
2024/03/30 05:52:24;;;;;;;8.60;4.53;;;;;;;11.31;100.00;98257.56;10408058;28;20061;-67
2024/03/30 05:57:24;;;;;;;9.00;4.43;;;;;;;11.31;100.00;98252.25;10391099;28;20088;-67
2024/03/30 06:02:25;;;;;;;8.18;4.70;;;;;;;11.31;100.00;98260.25;10400620;28;20069;-66
2024/03/30 06:07:25;;;;;;;7.10;4.18;;;;;;;11.43;100.00;98262.50;10372255;28;20049;-66
2024/03/30 06:12:26;;;;;;;7.47;4.03;;;;;;;11.42;100.00;98259.00;10377892;28;20156;-66
2024/03/30 06:17:28;;;;;;;5.53;3.70;;;;;;;11.45;100.00;98268.47;10402759;28;20484;-66
2024/03/30 06:22:28;;;;;;;6.65;3.75;;;;;;;11.48;100.00;98263.63;10400847;28;20136;-66
2024/03/30 06:27:29;;;;;;;8.18;4.78;;;;;;;11.53;100.00;98257.78;10397761;28;20490;-66
2024/03/30 06:32:29;;;;;;;7.30;3.72;;;;;;;11.56;100.00;98254.75;10406692;28;20383;-65
2024/03/30 06:37:30;;;;;;;8.05;3.78;;;;;;;11.58;100.00;98255.38;10411480;28;20234;-66
2024/03/30 06:47:51;;;;;;;10.60;3.83;;;;;;;11.65;100.00;98260.84;10404127;28;20135;-66
2024/03/30 06:52:51;;;;;;;13.40;4.13;;;;;;;11.65;100.00;98253.66;10396002;28;20545;-66
2024/03/30 06:57:52;;;;;;;12.57;3.80;;;;;;;11.77;100.00;98280.72;10405652;28;20084;-65
2024/03/30 07:02:52;;;;;;;11.27;3.92;;;;;;;11.72;100.00;98244.97;10405352;28;20060;-66
2024/03/30 07:07:53;;;;;;;10.30;4.43;;;;;;;11.83;100.00;98268.53;10402326;28;21005;-67
2024/03/30 07:12:54;;;;;;;11.57;4.10;;;;;;;11.87;99.47;98253.81;10391104;28;20053;-67
2024/03/30 07:17:57;;;;;;;10.25;4.28;;;;;;;11.94;99.62;98257.44;10401148;28;20061;-67
2024/03/30 07:22:58;;;;;;;7.43;3.67;;;;;;;12.03;98.99;98253.69;10407733;28;20955;-67
2024/03/30 07:27:58;;;;;;;14.35;4.00;;;;;;;12.08;98.69;98263.81;10406751;28;20055;-66
2024/03/30 07:32:59;;;;;;;11.05;3.80;;;;;;;12.10;98.03;98266.28;10408224;28;20075;-67
2024/03/30 07:38:00;;;;;;;11.00;3.97;;;;;;;12.13;98.50;98269.44;10408829;28;20067;-67
2024/03/30 07:43:02;;;;;;;13.00;4.53;;;;;;;12.12;98.26;98265.09;10409587;28;20515;-68
2024/03/30 07:48:02;;;;;;;10.52;3.63;;;;;;;12.18;97.41;98269.72;10402482;28;20045;-68
2024/03/30 07:53:03;;;;;;;14.20;4.68;;;;;;;12.20;96.65;98264.19;10397341;28;20121;-66
2024/03/30 07:58:03;;;;;;;10.63;4.07;;;;;;;12.26;97.44;98279.47;10396901;28;20054;-64
2024/03/30 08:03:04;;;;;;;13.45;4.05;;;;;;;12.31;96.81;98266.41;10387905;28;20053;-68
2024/03/30 08:08:05;;;;;;;13.10;4.10;;;;;;;12.41;96.62;98275.97;10397907;28;20110;-67
2024/03/30 08:13:05;;;;;;;14.10;4.68;;;;;;;12.42;95.92;98257.13;10380820;28;20129;-66
2024/03/30 08:18:07;;;;;;;13.45;4.10;;;;;;;12.48;94.72;98255.56;10361773;28;20275;-68
2024/03/30 08:23:07;;;;;;;17.75;4.28;;;;;;;12.52;93.01;98262.16;10373845;28;20059;-67
2024/03/30 08:28:10;;;;;;;13.57;4.35;;;;;;;12.55;94.47;98257.31;10402778;28;20173;-67
2024/03/30 08:33:10;;;;;;;18.55;4.30;;;;;;;12.59;93.81;98263.09;10402821;28;20156;-67
2024/03/30 08:38:11;;;;;;;16.60;4.10;;;;;;;12.66;93.87;98268.53;10398814;28;20059;-67
2024/03/30 08:43:11;;;;;;;15.17;3.57;;;;;;;12.72;93.18;98273.94;10382434;28;20057;-68
2024/03/30 08:48:13;;;;;;;14.93;3.58;;;;;;;12.81;94.24;98272.00;10402251;28;20278;-68
2024/03/30 08:53:14;;;;;;;12.00;3.78;;;;;;;12.89;92.77;98263.06;10407690;28;20132;-68
2024/03/30 08:58:14;;;;;;;20.83;3.97;;;;;;;12.99;91.12;98271.59;10405192;28;20048;-68
2024/03/30 09:03:14;;;;;;;15.25;4.60;;;;;;;13.08;90.63;98267.81;10402082;28;20092;-66
2024/03/30 09:08:15;;;;;;;14.85;3.75;;;;;;;13.14;89.43;98244.03;10400781;28;20053;-67
2024/03/30 09:13:16;;;;;;;16.33;4.60;;;;;;;13.19;86.83;98257.66;10362156;28;20887;-66
2024/03/30 09:18:16;;;;;;;15.93;4.18;;;;;;;13.23;86.93;98261.59;10405118;28;20256;-68
2024/03/30 09:23:16;;;;;;;16.63;4.63;;;;;;;13.21;86.56;98260.94;10406106;28;20231;-70
2024/03/30 09:28:17;;;;;;;20.98;4.32;;;;;;;13.32;86.38;98268.47;10393088;28;20124;-65
2024/03/30 09:33:18;;;;;;;13.48;4.05;;;;;;;13.39;83.32;98273.91;10404680;28;20045;-68
2024/03/30 09:38:18;;;;;;;13.70;3.90;;;;;;;13.46;83.71;98266.78;10398411;28;21016;-66
2024/03/30 09:43:19;;;;;;;16.50;3.70;;;;;;;13.53;81.96;98269.53;10401185;28;20191;-67
2024/03/30 09:48:21;;;;;;;17.40;4.35;;;;;;;13.47;83.35;98235.56;10381141;28;20053;-67
2024/03/30 09:53:24;;;;;;;12.90;3.40;;;;;;;13.76;82.78;98251.44;10404252;28;20119;-67
2024/03/30 09:58:25;;;;;;;11.60;3.67;;;;;;;13.82;83.06;98235.66;10408792;28;20147;-68
2024/03/30 10:03:25;;;;;;;19.05;5.22;;;;;;;13.96;83.53;98232.03;10389317;28;20578;-67
2024/03/30 10:08:27;;;;;;;16.15;3.63;;;;;;;14.15;82.59;98244.72;10404884;28;20045;-66
2024/03/30 10:13:30;;;;;;;17.73;4.38;;;;;;;14.30;81.06;98249.97;10399962;28;20128;-65
2024/03/30 10:18:30;;;;;;;20.73;3.95;;;;;;;14.54;80.81;98245.16;10402596;28;20486;-65
2024/03/30 10:23:31;;;;;;;11.57;3.55;;;;;;;14.88;78.83;98250.69;10390243;28;20045;-69
2024/03/30 10:28:31;;;;;;;17.73;4.18;;;;;;;14.98;78.42;98240.44;10375337;28;20041;-66
2024/03/30 10:33:32;;;;;;;17.45;5.05;;;;;;;15.08;77.15;98234.69;10360348;28;20150;-66
2024/03/30 10:38:32;;;;;;;16.23;4.18;;;;;;;15.22;76.33;98249.78;10367159;28;20068;-67
2024/03/30 10:43:35;;;;;;;19.40;4.78;;;;;;;15.29;76.14;98260.53;10423688;28;20089;-67
2024/03/30 10:48:36;;;;;;;16.83;4.63;;;;;;;15.59;76.84;98268.22;10410285;28;20160;-66
2024/03/30 10:53:36;;;;;;;20.42;5.03;;;;;;;16.18;73.72;98278.16;10380793;28;20057;-67
2024/03/30 10:58:37;;;;;;;18.45;4.72;;;;;;;16.32;70.95;98236.00;10396751;28;20045;-66
2024/03/30 11:03:38;;;;;;;18.70;5.30;;;;;;;16.80;72.37;98277.81;10398363;28;20179;-66
2024/03/30 11:08:39;;;;;;;21.42;4.63;;;;;;;16.48;72.01;98275.00;10388666;28;20476;-65
2024/03/30 11:13:40;;;;;;;24.50;5.50;;;;;;;16.19;72.04;98274.44;10411331;28;20480;-67
2024/03/30 11:18:54;;;;;;;21.25;5.07;;;;;;;15.99;71.59;98292.38;10407492;28;20043;-67
2024/03/30 11:23:56;;;;;;;18.60;3.97;;;;;;;15.82;73.44;98286.63;10396151;28;20152;-65
2024/03/30 11:29:29;;;;;;;15.55;3.92;;;;;;;15.56;73.21;98262.22;10404717;28;20235;-66
2024/03/30 11:34:37;;;;;;;23.42;6.00;;;;;;;15.68;76.16;98283.06;10424538;28;20711;-66
2024/03/30 11:39:43;;;;;;;17.40;4.88;;;;;;;15.65;74.89;98315.66;10408642;28;20136;-67
2024/03/30 11:44:46;;;;;;;17.02;4.32;;;;;;;15.34;73.10;98285.69;10402121;28;20136;-66
2024/03/30 11:49:47;;;;;;;18.27;5.03;;;;;;;15.52;73.12;98322.66;10379682;28;20120;-66
2024/03/30 11:54:47;;;;;;;17.92;4.53;;;;;;;15.48;73.76;98310.69;10362484;28;20088;-66
2024/03/30 11:59:51;;;;;;;19.85;5.40;;;;;;;15.19;71.87;98280.50;10400710;28;20230;-67
2024/03/30 12:04:52;;;;;;;;;;;;;;;15.40;72.82;98318.88;10394343;28;20756;-66
2024/03/30 12:09:54;;;;;;;25.02;6.07;;;;;;;15.38;73.16;98312.91;10390788;28;19925;-67
2024/03/30 12:14:58;;;;;;;20.77;4.65;;;;;;;15.36;73.36;98313.13;10383750;28;20141;-67
2024/03/30 12:20:00;;;;;;;24.55;5.53;;;;;;;15.33;73.42;98307.34;10400443;28;20211;-66
2024/03/30 12:25:01;;;;;;;22.77;5.97;;;;;;;15.35;73.96;98294.56;10398928;28;20052;-65
2024/03/30 12:30:04;;;;;;;18.60;5.30;;;;;;;15.34;75.36;98292.88;10356357;28;20763;-65
2024/03/30 12:35:05;;;;;;;23.02;5.85;;;;;;;15.34;75.04;98304.47;10397414;28;20179;-65
2024/03/30 12:40:07;;;;;;;22.65;5.32;;;;;;;15.33;76.77;98318.06;10362535;28;20049;-65
2024/03/30 12:45:07;;;;;;;21.02;5.22;;;;;;;15.14;76.46;98284.81;10357550;28;20060;-64
2024/03/30 12:50:09;;;;;;;16.40;6.43;;;;;;;15.24;77.09;98313.88;10401006;28;20071;-65
2024/03/30 12:55:10;;;;;;;18.98;4.72;;;;;;;15.18;77.55;98311.00;10400999;28;20743;-66
2024/03/30 13:00:15;;;;;;;16.10;5.28;;;;;;;15.16;78.67;98318.41;10400972;28;20081;-67
2024/03/30 13:05:16;;;;;;;17.15;5.07;;;;;;;15.11;79.48;98304.78;10387887;28;20148;-65
2024/03/30 13:10:16;;;;;;;17.02;4.50;;;;;;;15.10;80.05;98311.19;10386320;28;20404;-65
2024/03/30 13:15:18;;;;;;;23.83;6.30;;;;;;;15.07;80.32;98303.53;10400423;28;20046;-64
2024/03/30 13:20:20;;;;;;;17.33;4.75;;;;;;;15.08;81.00;98299.81;10388944;28;20502;-65
2024/03/30 13:25:20;;;;;;;16.17;5.15;;;;;;;15.07;81.41;98286.63;10385546;28;20121;-64
2024/03/30 13:30:21;;;;;;;15.45;4.38;;;;;;;15.07;81.28;98287.44;10373435;28;20506;-65
2024/03/30 13:35:21;;;;;;;21.02;5.68;;;;;;;15.08;81.86;98289.09;10403120;28;20048;-65
2024/03/30 13:40:22;;;;;;;13.98;4.80;;;;;;;15.08;82.74;98290.97;10368168;28;20885;-65
2024/03/30 13:45:23;;;;;;;20.90;6.05;;;;;;;15.10;81.86;98296.94;10406419;28;20049;-65
2024/03/30 13:50:23;;;;;;;16.80;5.20;;;;;;;15.14;82.43;98293.66;10387032;28;20460;-64
2024/03/30 13:55:24;;;;;;;19.23;5.18;;;;;;;14.98;83.00;98259.19;10362108;28;20041;-66
2024/03/30 14:00:27;;;;;;;20.17;5.68;;;;;;;15.20;83.03;98276.78;10360312;28;20512;-64
2024/03/30 14:05:27;;;;;;;18.90;5.22;;;;;;;15.24;83.83;98277.22;10384263;28;20693;-63
2024/03/30 14:10:27;;;;;;;19.42;6.55;;;;;;;15.32;83.83;98276.19;10366430;28;20064;-66
2024/03/30 14:15:28;;;;;;;22.60;6.40;;;;;;;15.32;83.20;98281.56;10372507;28;20486;-66
2024/03/30 14:20:28;;;;;;;19.20;6.05;;;;;;;15.33;84.05;98285.91;10401449;28;20045;-63
2024/03/30 14:25:30;;;;;;;16.98;5.63;;;;;;;15.33;83.72;98302.81;10382086;28;20134;-64
2024/03/30 14:30:31;;;;;;;22.55;5.60;;;;;;;15.30;84.06;98303.19;10390910;28;20125;-65
2024/03/30 14:35:32;;;;;;;24.90;6.50;;;;;;;15.30;84.15;98308.56;10400134;28;20070;-63
2024/03/30 14:40:32;;;;;;;23.73;5.63;;;;;;;15.29;83.86;98320.31;10410065;28;20132;-66
2024/03/30 14:45:33;;;;;;;19.95;5.55;;;;;;;15.27;84.16;98325.06;10390731;28;20091;-65
2024/03/30 14:50:33;;;;;;;18.38;5.82;;;;;;;15.32;84.68;98321.75;10378616;28;20066;-66
2024/03/30 14:55:33;;;;;;;15.63;5.38;;;;;;;15.29;84.44;98324.84;10394782;28;20077;-63
2024/03/30 15:00:34;;;;;;;17.98;5.53;;;;;;;15.27;83.46;98335.78;10410885;28;20477;-64
2024/03/30 15:05:34;;;;;;;18.17;5.15;;;;;;;15.30;83.86;98345.28;10386719;28;20472;-66
2024/03/30 15:10:35;;;;;;;16.27;4.88;;;;;;;15.34;84.01;98351.88;10386570;28;20855;-67
2024/03/30 15:15:35;;;;;;;20.30;5.90;;;;;;;15.36;83.54;98358.69;10407769;28;20050;-67
2024/03/30 15:20:36;;;;;;;21.80;6.35;;;;;;;15.29;81.38;98349.78;10401010;28;20228;-65
2024/03/30 15:25:36;;;;;;;15.68;5.35;;;;;;;15.27;80.88;98362.56;10403878;28;20517;-62
2024/03/30 15:36:00;;;;;;;20.95;5.43;;;;;;;15.05;79.01;98385.97;10399568;28;20041;-63
2024/03/30 15:41:00;;;;;;;20.88;5.88;;;;;;;14.99;79.68;98392.13;10400616;28;20151;-62
2024/03/30 15:46:01;;;;;;;16.67;4.80;;;;;;;14.98;79.75;98393.97;10391933;28;20057;-65
2024/03/30 15:51:04;;;;;;;16.02;4.80;;;;;;;14.97;79.78;98386.13;10400117;28;20080;-64
2024/03/30 15:56:04;;;;;;;18.85;4.30;;;;;;;14.90;79.37;98377.22;10396427;28;20128;-65
2024/03/30 16:01:07;;;;;;;19.10;5.13;;;;;;;14.95;79.46;98385.50;10387447;28;20056;-62
2024/03/30 16:06:08;;;;;;;23.02;5.07;;;;;;;14.91;79.49;98386.94;10400392;28;20151;-62
2024/03/30 16:11:09;;;;;;;15.25;4.60;;;;;;;14.91;79.27;98397.66;10377472;28;20190;-63
2024/03/30 16:16:09;;;;;;;16.00;5.60;;;;;;;14.87;79.61;98431.19;10391475;28;20053;-63
2024/03/30 16:21:10;;;;;;;20.63;5.00;;;;;;;14.83;79.83;98431.59;10391842;28;20248;-64
2024/03/30 16:26:11;;;;;;;19.52;4.63;;;;;;;14.82;78.67;98432.59;10397349;28;20048;-63
2024/03/30 16:31:11;;;;;;;20.10;5.22;;;;;;;14.74;79.00;98443.47;10405397;28;20060;-63
2024/03/30 16:36:12;;;;;;;18.70;5.15;;;;;;;14.75;80.02;98441.63;10397046;28;20052;-63
2024/03/30 16:41:12;;;;;;;21.55;4.80;;;;;;;14.71;79.59;98446.53;10383637;28;20079;-62
2024/03/30 16:46:13;;;;;;;15.48;4.32;;;;;;;14.71;79.81;98454.56;10377435;28;20063;-63
2024/03/30 16:51:13;;;;;;;15.00;4.82;;;;;;;14.71;79.37;98462.59;10403852;28;20048;-63
2024/03/30 16:56:14;;;;;;;21.50;4.70;;;;;;;14.70;79.04;98474.34;10407868;28;20044;-67
2024/03/30 17:01:15;;;;;;;16.88;6.10;;;;;;;14.65;79.19;98482.09;10407536;28;20057;-62
2024/03/30 17:06:15;;;;;;;16.80;6.30;;;;;;;14.67;79.88;98480.09;10400133;28;20932;-64
2024/03/30 17:11:16;;;;;;;20.27;5.80;;;;;;;14.43;79.16;98458.00;10397739;28;20073;-62
2024/03/30 17:16:16;;;;;;;18.48;4.65;;;;;;;14.61;79.15;98488.91;10398938;28;20056;-62
2024/03/30 17:21:17;;;;;;;21.70;4.57;;;;;;;14.64;78.65;98480.47;10388273;28;20657;-63
2024/03/30 17:26:18;;;;;;;15.52;4.70;;;;;;;14.65;79.17;98476.75;10367714;28;20664;-62
2024/03/30 17:31:19;;;;;;;18.65;4.55;;;;;;;14.61;78.92;98491.56;10369389;28;20198;-61
2024/03/30 17:36:19;;;;;;;14.85;5.30;;;;;;;14.56;79.04;98501.97;10393877;28;20914;-63
2024/03/30 17:41:20;;;;;;;12.80;4.43;;;;;;;14.50;79.38;98509.78;10391837;28;20430;-63
2024/03/30 17:46:20;;;;;;;16.30;4.88;;;;;;;14.47;79.48;98515.50;10405129;28;20137;-61
2024/03/30 17:51:21;;;;;;;17.48;5.65;;;;;;;14.41;79.52;98518.97;10410426;28;20040;-62
2024/03/30 17:56:21;;;;;;;17.67;5.20;;;;;;;14.39;79.87;98520.16;10410812;28;20391;-63
2024/03/30 18:01:22;;;;;;;12.23;4.38;;;;;;;14.32;80.39;98522.75;10406690;28;20056;-63
2024/03/30 18:06:27;;;;;;;19.45;7.00;;;;;;;14.26;80.74;98527.03;10412750;28;20421;-65
2024/03/30 18:11:28;;;;;;;20.92;6.43;;;;;;;14.23;81.24;98527.41;10399405;28;20110;-63
2024/03/30 18:16:30;;;;;;;15.10;5.47;;;;;;;14.19;81.70;98527.97;10393174;28;20132;-61
2024/03/30 18:21:30;;;;;;;18.73;6.88;;;;;;;14.18;82.36;98531.66;10356202;28;20123;-62
2024/03/30 18:26:32;;;;;;;14.95;4.90;;;;;;;13.94;82.61;98502.38;10391832;28;20048;-61
2024/03/30 18:31:33;;;;;;;12.43;5.35;;;;;;;14.05;82.99;98557.25;10401284;28;20045;-62
2024/03/30 18:36:33;;;;;;;22.98;6.50;;;;;;;14.00;83.86;98559.66;10398465;28;20045;-61
2024/03/30 18:41:34;;;;;;;28.85;7.18;;;;;;;13.78;84.22;98519.47;10409939;28;20041;-61
2024/03/30 18:46:34;;;;;;;18.83;6.38;;;;;;;13.92;85.25;98546.41;10408243;28;21570;-60
2024/03/30 18:51:35;;;;;;;21.50;6.63;;;;;;;13.90;85.49;98548.41;10394144;28;20170;-61
2024/03/30 18:56:35;;;;;;;16.92;5.88;;;;;;;13.91;85.95;98545.53;10403776;28;20049;-62
2024/03/30 19:01:36;;;;;;;15.05;6.32;;;;;;;13.90;86.23;98540.38;10394546;28;21174;-58
2024/03/30 19:06:37;;;;;;;15.70;6.63;;;;;;;13.88;86.44;98540.56;10368786;28;20050;-59
2024/03/30 19:11:37;;;;;;;22.17;7.28;;;;;;;13.82;86.88;98559.22;10361887;28;20057;-59
2024/03/30 19:16:37;;;;;;;21.55;7.65;;;;;;;13.84;87.27;98554.50;10355540;28;20045;-59
2024/03/30 19:21:39;;;;;;;13.50;6.18;;;;;;;13.57;87.87;98511.38;10358276;28;20428;-58
2024/03/30 19:26:39;;;;;;;21.45;7.40;;;;;;;13.77;87.31;98541.88;10354406;28;20508;-57
2024/03/30 19:31:40;;;;;;;15.50;6.63;;;;;;;13.40;87.88;98489.34;10413920;28;20045;-58
2024/03/30 19:36:43;;;;;;;18.05;7.78;;;;;;;13.71;88.27;98544.47;10395879;28;20154;-59
2024/03/30 19:41:43;;;;;;;22.50;9.15;;;;;;;13.63;88.97;98528.53;10393860;28;20171;-61
2024/03/30 19:46:44;;;;;;;14.07;7.00;;;;;;;13.60;89.22;98532.38;10402526;28;20041;-59
2024/03/30 19:51:44;;;;;;;24.50;9.55;;;;;;;13.51;89.54;98536.16;10401043;28;20052;-59
2024/03/30 19:56:45;;;;;;;18.85;8.15;;;;;;;13.49;90.04;98547.03;10409893;28;20040;-59
2024/03/30 20:01:45;;;;;;;15.70;6.53;;;;;;;13.37;89.98;98533.31;10390917;28;20073;-59
2024/03/30 20:06:46;;;;;;;14.65;5.85;;;;;;;13.39;90.06;98536.66;10375398;28;20046;-60
2024/03/30 20:11:46;;;;;;;17.85;6.82;;;;;;;13.40;90.10;98519.56;10395689;28;20061;-59
2024/03/30 20:16:47;;;;;;;17.90;6.90;;;;;;;13.40;90.45;98511.56;10402889;28;20044;-60
2024/03/30 20:21:47;;;;;;;17.42;7.68;;;;;;;13.41;90.17;98523.09;10383790;28;20395;-58
2024/03/30 20:26:48;;;;;;;18.67;8.73;;;;;;;13.40;90.08;98526.78;10398659;28;20068;-58
2024/03/30 20:31:48;;;;;;;18.27;8.32;;;;;;;13.40;90.18;98532.13;10401954;28;20684;-61
2024/03/30 20:36:49;;;;;;;23.35;8.35;;;;;;;13.36;90.27;98541.50;10397239;28;20554;-59
2024/03/30 20:41:49;;;;;;;20.30;7.30;;;;;;;13.30;90.55;98532.38;10339921;28;20187;-59
2024/03/30 20:46:49;;;;;;;18.50;8.02;;;;;;;13.24;90.67;98517.03;10349851;28;20074;-60
2024/03/30 20:51:50;;;;;;;20.35;6.97;;;;;;;13.29;90.99;98503.97;10392682;28;20492;-58
2024/03/30 20:56:50;;;;;;;20.92;7.00;;;;;;;13.33;91.02;98489.25;10396734;28;20060;-60
2024/03/30 21:01:51;;;;;;;15.20;6.78;;;;;;;13.32;90.69;98487.59;10381707;28;20616;-59
2024/03/30 21:06:51;;;;;;;17.02;7.07;;;;;;;13.30;91.17;98486.09;10387749;28;20114;-60
2024/03/30 21:11:52;;;;;;;16.17;6.60;;;;;;;13.31;90.84;98507.28;10397983;28;20052;-59
2024/03/30 21:16:52;;;;;;;18.42;7.10;;;;;;;13.28;91.28;98494.31;10368226;28;20058;-58
2024/03/30 21:21:53;;;;;;;25.80;8.88;;;;;;;13.01;91.26;98453.03;10369361;28;20144;-58
2024/03/30 21:26:53;;;;;;;22.00;7.78;;;;;;;13.26;91.61;98491.81;10392283;28;20067;-57
2024/03/30 21:31:54;;;;;;;15.05;7.72;;;;;;;13.25;91.39;98508.03;10389383;28;20489;-59
2024/03/30 21:36:56;;;;;;;21.67;10.80;;;;;;;13.23;91.59;98497.53;10384801;28;20053;-59
2024/03/30 21:41:57;;;;;;;16.35;8.30;;;;;;;13.20;92.11;98481.03;10388318;28;20155;-65
2024/03/30 21:46:57;;;;;;;16.95;7.93;;;;;;;13.22;91.89;98481.69;10396325;28;20144;-58
2024/03/30 21:51:58;;;;;;;14.85;7.05;;;;;;;13.19;91.95;98484.72;10398843;28;20135;-59
2024/03/30 21:56:59;;;;;;;19.33;8.35;;;;;;;13.16;92.29;98498.44;10402448;28;20048;-59
2024/03/30 22:02:00;;;;;;;17.40;8.05;;;;;;;13.08;92.65;98478.81;10385845;28;20157;-59
2024/03/30 22:07:01;;;;;;;17.88;9.50;;;;;;;13.08;92.26;98475.31;10410191;28;20120;-59
2024/03/30 22:12:01;;;;;;;24.80;8.48;;;;;;;13.04;92.25;98485.53;10399183;28;20701;-58
2024/03/30 22:17:02;;;;;;;20.33;9.15;;;;;;;13.00;91.99;98478.06;10384232;28;20050;-60
2024/03/30 22:22:03;;;;;;;24.27;10.88;;;;;;;12.96;92.11;98477.63;10364936;28;20049;-59
2024/03/30 22:27:03;;;;;;;19.73;10.45;;;;;;;12.93;92.57;98477.97;10366121;28;20046;-58
2024/03/30 22:32:04;;;;;;;16.80;10.35;;;;;;;12.90;92.55;98476.50;10386056;28;20135;-59
2024/03/30 22:37:05;;;;;;;16.27;8.32;;;;;;;12.62;92.41;98456.75;10406326;28;20143;-58
2024/03/30 22:42:06;;;;;;;19.40;8.80;;;;;;;12.75;92.90;98496.19;10360306;28;20123;-59
2024/03/30 22:47:06;;;;;;;23.50;10.00;;;;;;;12.68;93.21;98485.38;10372187;28;20075;-58
2024/03/30 22:52:06;;;;;;;18.00;7.53;;;;;;;12.68;92.99;98475.53;10373521;28;20613;-60
2024/03/30 22:57:08;;;;;;;20.48;8.68;;;;;;;12.67;93.46;98470.38;10424850;28;20048;-57
2024/03/30 23:02:08;;;;;;;20.33;7.78;;;;;;;12.67;93.38;98478.38;10405519;28;20438;-60
2024/03/30 23:07:09;;;;;;;26.08;9.65;;;;;;;12.64;93.14;98479.59;10409984;28;20052;-59
2024/03/30 23:12:09;;;;;;;21.77;10.05;;;;;;;12.65;93.28;98497.25;10392501;28;20057;-58